Airport ID:KEDC
Update Time (UTC):21 JUL 17 00:41
Wind Speed (Knots):5
Wind Direction (Magnetic):160
Temperature (°C):35
Dew Point (°C):19
Humidity (%):38
Altimeter (inHg):29.97
Density Altitude (Feet):3000
Visibility (Miles):
Clouds (Hundreds of feet):
Present Weather:NO PRECIPITATION
METAR:METAR KEDC 210040Z AUTO 17005KT 35/19 A2997 RMK AO2

The data displayed is for advisory purposes only and is not to be used for flight planning or operations.

This page is not automatically refreshed. Reload the page to see current data.